Time;durP1;ratioP1;P1;durP2;ratioP2;P2;SDS_P1;SDS_P2;PMS_P1;PMS_P2;Temp;Humidity;BMP_temperature;BMP_pressure;BME280_temperature;BME280_humidity;BME280_pressure;Samples;Min_cycle;Max_cycle;Signal;HPM_P1;HPM_P2
2023/02/22 00:00:28;;;;;;;7.93;4.57;;;;;;;9.48;56.17;98712.34;6998020;28;20205;-79
2023/02/22 00:03:51;;;;;;;5.37;4.70;;;;;;;9.40;55.26;98641.72;6998126;28;20634;-79
2023/02/22 00:07:13;;;;;;;9.50;5.03;;;;;;;9.31;55.75;98689.47;6997528;28;20227;-79
2023/02/22 00:10:38;;;;;;;7.17;4.90;;;;;;;9.38;55.39;98702.94;6997697;28;20676;-79
2023/02/22 00:14:01;;;;;;;5.17;4.63;;;;;;;9.21;56.13;98702.47;6997408;28;20241;-79
2023/02/22 00:17:22;;;;;;;6.93;4.60;;;;;;;9.15;55.88;98694.38;6997110;28;20233;-80
2023/02/22 00:20:44;;;;;;;7.97;6.00;;;;;;;8.66;56.32;98639.06;6997960;28;20270;-79
2023/02/22 00:24:21;;;;;;;14.40;6.07;;;;;;;9.25;56.11;98698.34;6998079;28;20212;-79
2023/02/22 00:27:44;;;;;;;6.67;4.97;;;;;;;9.41;55.47;98694.50;6996870;28;20225;-79
2023/02/22 00:31:08;;;;;;;6.37;4.90;;;;;;;9.13;55.97;98684.84;7000756;28;20230;-79
2023/02/22 00:34:29;;;;;;;8.53;4.57;;;;;;;9.07;56.35;98670.31;7006107;28;20205;-79
2023/02/22 00:37:52;;;;;;;6.70;4.97;;;;;;;9.21;56.56;98680.13;7005931;28;20300;-80
2023/02/22 00:41:14;;;;;;;5.97;4.70;;;;;;;8.80;56.45;98695.41;7006178;28;20353;-80
2023/02/22 00:44:36;;;;;;;5.43;4.53;;;;;;;8.54;57.38;98703.25;7006572;28;20305;-80
2023/02/22 00:47:59;;;;;;;5.20;4.47;;;;;;;8.51;59.60;98690.22;7005355;28;20254;-79
2023/02/22 00:51:20;;;;;;;8.83;4.60;;;;;;;8.45;58.46;98658.75;7006427;28;20242;-79
2023/02/22 00:54:42;;;;;;;6.60;5.20;;;;;;;8.37;58.75;98693.81;7008299;28;20288;-80
2023/02/22 00:58:04;;;;;;;8.40;4.83;;;;;;;8.45;59.32;98691.00;7007331;28;20289;-79
2023/02/22 01:01:27;;;;;;;8.17;4.90;;;;;;;8.57;58.53;98667.09;7005158;28;20358;-79
2023/02/22 01:04:49;;;;;;;8.93;5.20;;;;;;;8.82;59.14;98684.44;6996607;28;20208;-79
2023/02/22 01:08:12;;;;;;;7.17;5.37;;;;;;;8.73;58.52;98694.50;6996021;28;20642;-80
2023/02/22 01:11:34;;;;;;;8.73;5.67;;;;;;;8.98;58.32;98690.34;6996544;28;20228;-79
2023/02/22 01:14:57;;;;;;;7.03;5.43;;;;;;;9.30;57.12;98681.59;6998145;28;20722;-79
2023/02/22 01:18:20;;;;;;;6.03;5.40;;;;;;;9.22;56.85;98679.91;6997557;28;20233;-79
2023/02/22 01:21:42;;;;;;;6.53;5.20;;;;;;;9.01;56.14;98638.84;6996167;28;20610;-79
2023/02/22 01:25:06;;;;;;;10.27;4.83;;;;;;;9.41;56.10;98663.06;6996566;28;20693;-79
2023/02/22 01:28:28;;;;;;;11.33;8.17;;;;;;;9.21;55.60;98669.38;6997599;28;20229;-79
2023/02/22 01:31:54;;;;;;;7.67;5.30;;;;;;;8.68;55.71;98653.97;6998300;28;20319;-79
2023/02/22 01:35:19;;;;;;;6.17;4.90;;;;;;;8.85;56.97;98673.28;6998253;28;20638;-79
2023/02/22 01:38:41;;;;;;;6.70;5.23;;;;;;;8.95;56.86;98663.84;6997844;28;20229;-79
2023/02/22 01:42:02;;;;;;;6.73;5.70;;;;;;;8.86;56.94;98648.91;7003677;28;20320;-80
2023/02/22 01:45:48;;;;;;;5.97;5.03;;;;;;;8.69;56.76;98657.47;7002447;28;20270;-79
2023/02/22 01:49:10;;;;;;;6.17;4.97;;;;;;;8.65;57.00;98624.78;7002759;28;20577;-79
2023/02/22 01:52:33;;;;;;;9.57;6.23;;;;;;;8.83;57.20;98649.28;7001329;28;20323;-80
2023/02/22 01:55:55;;;;;;;6.87;5.53;;;;;;;8.89;57.49;98645.81;7000877;28;20211;-79
2023/02/22 01:59:17;;;;;;;8.60;6.40;;;;;;;8.71;58.95;98640.13;7001457;28;20221;-79
2023/02/22 02:02:42;;;;;;;9.97;6.50;;;;;;;8.58;59.41;98626.59;7001349;28;20602;-79
2023/02/22 02:06:06;;;;;;;9.10;5.97;;;;;;;8.89;57.52;98562.47;7000691;28;20275;-79
2023/02/22 02:09:32;;;;;;;9.83;6.53;;;;;;;9.42;57.70;98626.19;7001070;28;20373;-79
2023/02/22 02:12:55;;;;;;;7.83;6.30;;;;;;;9.55;57.51;98616.31;7001061;28;20210;-79
2023/02/22 02:16:16;;;;;;;8.13;6.33;;;;;;;9.68;56.52;98631.66;7000373;28;20697;-80
2023/02/22 02:19:47;;;;;;;12.17;6.20;;;;;;;9.43;56.92;98619.78;7000467;28;20274;-79
2023/02/22 02:23:19;;;;;;;6.90;6.10;;;;;;;9.54;56.67;98628.09;7001396;28;20300;-79
2023/02/22 02:27:02;;;;;;;7.27;6.53;;;;;;;9.19;56.95;98609.56;7000230;28;20655;-80
2023/02/22 02:30:42;;;;;;;7.10;6.40;;;;;;;9.45;56.73;98615.03;7000603;28;20216;-79
2023/02/22 02:34:12;;;;;;;8.33;6.47;;;;;;;9.49;56.89;98606.34;7000079;28;20276;-79
2023/02/22 02:37:37;;;;;;;7.80;6.27;;;;;;;9.37;56.79;98609.81;6999651;28;20681;-79
2023/02/22 02:41:05;;;;;;;8.87;6.83;;;;;;;9.07;57.88;98610.34;7000201;28;20255;-79
2023/02/22 02:44:30;;;;;;;10.17;6.80;;;;;;;8.78;58.57;98565.72;7000260;28;20196;-80
2023/02/22 02:47:57;;;;;;;11.40;7.93;;;;;;;9.22;57.84;98596.53;6998745;28;20233;-79
2023/02/22 02:51:21;;;;;;;7.67;6.93;;;;;;;9.63;57.24;98591.06;6999704;28;20217;-79
2023/02/22 02:54:44;;;;;;;9.43;7.53;;;;;;;8.80;58.80;98573.59;6999662;28;20350;-79
2023/02/22 02:58:07;;;;;;;10.00;6.80;;;;;;;8.78;58.96;98557.66;6998643;28;20243;-80
2023/02/22 03:01:40;;;;;;;10.13;7.03;;;;;;;8.92;58.48;98553.19;6999895;28;20577;-79
2023/02/22 03:05:19;;;;;;;9.73;6.53;;;;;;;9.22;57.01;98547.28;6999418;28;20185;-79
2023/02/22 03:08:44;;;;;;;9.00;6.83;;;;;;;9.60;56.51;98575.31;6999070;28;20315;-79
2023/02/22 03:12:14;;;;;;;9.00;6.40;;;;;;;9.40;56.27;98551.03;6999358;28;20225;-79
2023/02/22 03:15:44;;;;;;;8.20;6.73;;;;;;;9.52;56.70;98565.56;6999526;28;20250;-79
2023/02/22 03:19:09;;;;;;;7.00;6.30;;;;;;;9.78;55.57;98549.47;6999170;28;20635;-79
2023/02/22 03:22:33;;;;;;;10.97;7.73;;;;;;;9.40;55.50;98544.84;6999219;28;20211;-79
2023/02/22 03:26:00;;;;;;;7.70;6.83;;;;;;;9.38;56.26;98563.88;6998873;28;20198;-79
2023/02/22 03:29:25;;;;;;;9.43;6.90;;;;;;;9.66;55.65;98552.97;6998714;28;20224;-79
2023/02/22 03:32:51;;;;;;;10.03;7.40;;;;;;;9.60;56.18;98556.47;6999169;28;20225;-79
2023/02/22 03:36:16;;;;;;;7.73;6.80;;;;;;;9.81;55.10;98551.72;6998196;28;20202;-79
2023/02/22 03:39:38;;;;;;;10.03;6.87;;;;;;;9.48;55.92;98547.34;6999296;28;20266;-79
2023/02/22 03:43:05;;;;;;;13.43;7.20;;;;;;;9.30;56.39;98542.56;6998513;28;20204;-79
2023/02/22 03:46:29;;;;;;;8.67;7.10;;;;;;;9.59;56.09;98544.91;6997440;28;20620;-79
2023/02/22 03:49:54;;;;;;;7.97;6.60;;;;;;;9.65;55.33;98546.75;7003579;28;20237;-80
2023/02/22 03:53:17;;;;;;;10.97;7.80;;;;;;;9.63;55.62;98542.63;7002228;28;20230;-79
2023/02/22 03:56:46;;;;;;;12.80;7.10;;;;;;;9.69;54.77;98542.59;6998069;28;20275;-79
2023/02/22 04:00:13;;;;;;;10.43;7.13;;;;;;;9.55;54.89;98551.72;6998220;28;20232;-79
2023/02/22 04:03:34;;;;;;;9.23;7.20;;;;;;;9.57;54.76;98546.13;6997703;28;20197;-79
2023/02/22 04:06:56;;;;;;;8.40;7.00;;;;;;;9.56;55.53;98545.28;6997273;28;20292;-80
2023/02/22 04:10:18;;;;;;;7.70;6.50;;;;;;;9.17;56.08;98530.94;6997447;28;20355;-79
2023/02/22 04:13:39;;;;;;;11.50;7.17;;;;;;;9.51;55.82;98555.84;6997853;28;20286;-79
2023/02/22 04:17:02;;;;;;;13.47;7.80;;;;;;;9.75;55.19;98554.44;6997427;28;20611;-79
2023/02/22 04:20:24;;;;;;;10.87;7.90;;;;;;;9.67;54.48;98550.06;6998319;28;20693;-79
2023/02/22 04:23:45;;;;;;;10.67;7.70;;;;;;;9.38;54.64;98553.13;6997788;28;20576;-79
2023/02/22 04:27:07;;;;;;;9.43;7.30;;;;;;;9.15;55.74;98546.47;6997214;28;20261;-79
2023/02/22 04:30:28;;;;;;;8.83;7.30;;;;;;;9.22;55.75;98545.41;6996968;28;20314;-79
2023/02/22 04:33:51;;;;;;;8.30;6.50;;;;;;;9.24;56.04;98539.84;6997093;28;20239;-79
2023/02/22 04:37:13;;;;;;;8.53;7.10;;;;;;;9.07;55.21;98546.63;6996889;28;20230;-79
2023/02/22 04:40:34;;;;;;;10.80;7.43;;;;;;;8.88;56.12;98547.38;6997297;28;20300;-80
2023/02/22 04:43:56;;;;;;;8.77;6.90;;;;;;;8.48;56.45;98489.09;6996878;28;20347;-79
2023/02/22 04:47:17;;;;;;;9.27;7.20;;;;;;;8.59;57.12;98544.13;6995287;28;20293;-79
2023/02/22 04:50:40;;;;;;;10.00;7.00;;;;;;;8.46;57.48;98538.69;6996581;28;20193;-79
2023/02/22 04:54:02;;;;;;;8.23;7.20;;;;;;;8.56;57.61;98531.94;6997015;28;20206;-79
2023/02/22 04:57:23;;;;;;;8.20;6.77;;;;;;;8.66;57.08;98540.44;6996379;28;20283;-79
2023/02/22 05:00:45;;;;;;;10.43;7.70;;;;;;;8.74;56.84;98542.97;6996789;28;20262;-79
2023/02/22 05:04:07;;;;;;;8.47;7.17;;;;;;;8.99;56.49;98519.91;6995897;28;20662;-79
2023/02/22 05:07:30;;;;;;;10.70;7.70;;;;;;;9.01;55.99;98525.91;6995845;28;20228;-79
2023/02/22 05:10:52;;;;;;;8.23;6.67;;;;;;;8.90;55.87;98531.88;6996027;28;20273;-80
2023/02/22 05:14:13;;;;;;;9.37;6.63;;;;;;;8.73;55.87;98519.78;6996271;28;20211;-80
2023/02/22 05:17:35;;;;;;;9.67;7.23;;;;;;;8.66;55.76;98484.00;6995388;28;20306;-79
2023/02/22 05:20:56;;;;;;;9.43;6.77;;;;;;;8.75;55.87;98524.97;6995339;28;20585;-80
2023/02/22 05:24:19;;;;;;;9.53;6.87;;;;;;;8.68;56.26;98524.13;6995682;28;20292;-79
2023/02/22 05:27:41;;;;;;;7.67;6.97;;;;;;;8.46;56.67;98511.81;6995371;28;20236;-79
2023/02/22 05:31:03;;;;;;;8.13;7.27;;;;;;;8.60;56.40;98521.63;6995956;28;20294;-83
2023/02/22 05:34:24;;;;;;;9.07;6.87;;;;;;;8.28;56.77;98490.88;6992003;28;20248;-80
2023/02/22 05:37:46;;;;;;;8.60;7.60;;;;;;;8.50;56.19;98510.41;6977737;28;20312;-79
2023/02/22 05:41:09;;;;;;;10.40;7.20;;;;;;;8.53;56.25;98526.09;6980757;28;20293;-80
2023/02/22 05:44:31;;;;;;;9.43;6.93;;;;;;;8.22;56.69;98506.94;6990986;28;20214;-79
2023/02/22 05:47:53;;;;;;;9.30;7.63;;;;;;;8.32;57.26;98508.22;6991634;28;20574;-79
2023/02/22 05:51:14;;;;;;;10.50;7.77;;;;;;;8.26;57.22;98510.88;6996147;28;20210;-79
2023/02/22 05:54:36;;;;;;;9.53;7.33;;;;;;;7.92;58.21;98513.50;6996289;28;20205;-79
2023/02/22 05:58:00;;;;;;;9.97;7.63;;;;;;;8.23;58.31;98500.53;7001061;28;20414;-81
2023/02/22 06:01:22;;;;;;;8.33;7.43;;;;;;;8.18;58.15;98502.94;6998500;28;20560;-80
2023/02/22 06:04:44;;;;;;;9.27;7.50;;;;;;;8.18;57.92;98506.47;6995826;28;20616;-79
2023/02/22 06:08:07;;;;;;;9.67;7.20;;;;;;;7.87;57.72;98475.69;6995595;28;20319;-78
2023/02/22 06:11:28;;;;;;;9.70;7.90;;;;;;;8.20;57.83;98525.09;6995767;28;20231;-79
2023/02/22 06:14:51;;;;;;;9.00;7.70;;;;;;;7.56;58.98;98468.03;6994994;28;20419;-79
2023/02/22 06:18:13;;;;;;;9.53;7.77;;;;;;;7.93;57.90;98517.84;6994596;28;20264;-80
2023/02/22 06:21:34;;;;;;;11.30;7.80;;;;;;;8.05;58.98;98511.75;6995280;28;20204;-80
2023/02/22 06:24:56;;;;;;;8.23;7.07;;;;;;;8.30;57.74;98512.97;6995391;28;20208;-79
2023/02/22 06:28:17;;;;;;;9.03;7.57;;;;;;;8.59;57.45;98520.78;6994708;28;20442;-79
2023/02/22 06:31:40;;;;;;;9.40;7.53;;;;;;;8.74;57.34;98526.84;6997520;28;20314;-80
2023/02/22 06:35:01;;;;;;;12.93;8.00;;;;;;;8.92;57.20;98516.38;6999883;28;20262;-79
2023/02/22 06:38:24;;;;;;;10.27;9.03;;;;;;;9.05;56.58;98513.72;6999792;28;20226;-80
2023/02/22 06:41:47;;;;;;;8.93;7.43;;;;;;;8.79;55.88;98488.63;7000771;28;20198;-79
2023/02/22 06:45:09;;;;;;;10.70;7.97;;;;;;;8.78;56.87;98509.28;6985524;28;20247;-80
2023/02/22 06:48:32;;;;;;;10.20;8.30;;;;;;;8.47;57.62;98503.56;6983566;28;20227;-79
2023/02/22 06:51:54;;;;;;;12.10;8.50;;;;;;;8.13;58.57;98482.06;6988555;28;21010;-79
2023/02/22 06:55:20;;;;;;;13.87;9.27;;;;;;;8.38;58.33;98520.06;6977324;28;20199;-80
2023/02/22 06:58:41;;;;;;;11.70;8.47;;;;;;;8.42;58.03;98526.69;6971214;28;20222;-79
2023/02/22 07:02:03;;;;;;;18.53;13.23;;;;;;;8.42;57.85;98500.63;6971633;28;20202;-79
2023/02/22 07:05:27;;;;;;;13.37;9.70;;;;;;;9.07;56.97;98522.41;6971469;28;20213;-80
2023/02/22 07:08:48;;;;;;;10.63;8.23;;;;;;;9.03;57.22;98526.56;6971167;28;20275;-79
2023/02/22 07:12:10;;;;;;;9.10;8.03;;;;;;;8.98;57.35;98530.88;6971806;28;20337;-79
2023/02/22 07:15:32;;;;;;;10.93;8.50;;;;;;;9.46;57.14;98525.19;6982370;28;20300;-80
2023/02/22 07:18:54;;;;;;;10.00;7.87;;;;;;;9.90;55.12;98528.13;6998780;28;20771;-79
2023/02/22 07:22:17;;;;;;;11.50;8.53;;;;;;;10.55;54.50;98504.63;7003146;28;20285;-80
2023/02/22 07:25:38;;;;;;;7.80;7.00;;;;;;;11.14;52.61;98520.56;7014201;28;20247;-81
2023/02/22 07:29:00;;;;;;;8.33;6.67;;;;;;;11.88;51.31;98532.38;7008167;28;20256;-80
2023/02/22 07:32:21;;;;;;;10.47;7.30;;;;;;;12.15;50.18;98513.00;7009418;28;20225;-80
2023/02/22 07:35:45;;;;;;;14.20;7.50;;;;;;;12.28;49.07;98496.66;7017502;28;20258;-79
2023/02/22 07:39:08;;;;;;;9.00;6.93;;;;;;;12.65;48.73;98513.75;7023273;28;20226;-79
2023/02/22 07:42:31;;;;;;;7.03;6.27;;;;;;;13.22;46.55;98516.00;7014726;28;20209;-79
2023/02/22 07:45:55;;;;;;;7.47;6.27;;;;;;;12.52;48.23;98516.59;7012824;28;20231;-79
2023/02/22 07:49:17;;;;;;;8.03;6.47;;;;;;;12.85;47.73;98519.75;7010358;28;20312;-79
2023/02/22 07:52:38;;;;;;;8.10;6.17;;;;;;;13.33;46.69;98499.78;7001321;28;20229;-79
2023/02/22 07:56:04;;;;;;;10.60;6.03;;;;;;;13.85;46.02;98511.69;7013665;28;20343;-80
2023/02/22 07:59:25;;;;;;;7.23;6.53;;;;;;;13.86;45.96;98519.59;7014360;28;20589;-80
2023/02/22 08:02:46;;;;;;;6.70;5.60;;;;;;;14.33;44.75;98513.19;7013003;28;20234;-80
2023/02/22 08:06:08;;;;;;;6.63;5.60;;;;;;;14.35;44.49;98515.69;7004873;28;20295;-79
2023/02/22 08:09:29;;;;;;;9.17;6.90;;;;;;;14.57;44.97;98514.03;6998780;28;20231;-80
2023/02/22 08:12:54;;;;;;;7.37;6.60;;;;;;;15.11;43.79;98517.09;7000798;28;20277;-80
2023/02/22 08:16:16;;;;;;;9.87;6.93;;;;;;;15.19;43.10;98515.88;7009135;28;20206;-79
2023/02/22 08:19:38;;;;;;;36.40;13.43;;;;;;;15.23;44.27;98511.63;7004774;28;20371;-79
2023/02/22 08:22:59;;;;;;;12.47;7.30;;;;;;;15.31;43.11;98511.22;6997673;28;20246;-79
2023/02/22 08:26:22;;;;;;;10.17;7.33;;;;;;;14.27;44.20;98461.81;6996137;28;20294;-79
2023/02/22 08:29:47;;;;;;;12.97;7.43;;;;;;;13.75;46.27;98516.88;6997314;28;20405;-80
2023/02/22 08:33:09;;;;;;;10.50;7.20;;;;;;;14.64;44.83;98512.81;6995515;28;20702;-80
2023/02/22 08:36:31;;;;;;;10.23;7.20;;;;;;;15.25;43.58;98515.75;6983984;28;20244;-79
2023/02/22 08:39:54;;;;;;;10.27;7.07;;;;;;;16.22;42.24;98509.91;6984164;28;20229;-84
2023/02/22 08:43:16;;;;;;;7.93;6.37;;;;;;;16.01;42.14;98507.94;6990834;28;20662;-80
2023/02/22 08:46:40;;;;;;;12.40;7.60;;;;;;;16.19;41.04;98510.41;6984071;28;20217;-81
2023/02/22 08:50:02;;;;;;;11.23;6.97;;;;;;;16.16;41.35;98510.91;7000673;28;20841;-82
2023/02/22 08:53:24;;;;;;;13.07;7.57;;;;;;;17.05;40.02;98515.22;7007686;28;20246;-80
2023/02/22 08:56:45;;;;;;;10.80;7.47;;;;;;;17.27;38.92;98511.41;6992901;28;20301;-80
2023/02/22 09:00:08;;;;;;;13.27;8.53;;;;;;;16.50;40.94;98515.28;6990783;28;20430;-80
2023/02/22 09:03:31;;;;;;;11.17;7.53;;;;;;;18.12;38.04;98511.50;6993301;28;20283;-79
2023/02/22 09:06:53;;;;;;;11.00;7.17;;;;;;;19.79;34.97;98511.06;6991276;28;20208;-80
2023/02/22 09:10:16;;;;;;;11.30;7.37;;;;;;;19.57;34.09;98447.56;6993774;28;20224;-80
2023/02/22 09:13:37;;;;;;;15.60;8.20;;;;;;;20.79;32.74;98497.38;7003200;28;20633;-80
2023/02/22 09:16:59;;;;;;;8.00;6.73;;;;;;;20.56;32.21;98454.13;7005600;28;20224;-80
2023/02/22 09:20:23;;;;;;;12.23;7.53;;;;;;;19.09;34.94;98502.59;7004723;28;20296;-80
2023/02/22 09:23:46;;;;;;;11.57;7.73;;;;;;;18.94;35.64;98504.44;7004984;28;20792;-80
2023/02/22 09:27:09;;;;;;;11.13;6.93;;;;;;;18.08;37.68;98504.91;7000757;28;20241;-80
2023/02/22 09:30:32;;;;;;;11.53;9.00;;;;;;;17.10;38.93;98499.75;7004736;28;20603;-80
2023/02/22 09:33:54;;;;;;;10.23;7.53;;;;;;;16.39;40.35;98496.34;6999036;28;20437;-80
2023/02/22 09:37:17;;;;;;;9.63;7.27;;;;;;;16.20;42.60;98505.78;6995104;28;20636;-80
2023/02/22 09:40:43;;;;;;;10.10;7.63;;;;;;;16.29;41.10;98502.41;6997957;28;20305;-80
2023/02/22 09:44:15;;;;;;;10.43;8.00;;;;;;;15.85;42.31;98497.88;7000032;28;20196;-81
2023/02/22 09:47:39;;;;;;;7.77;6.97;;;;;;;15.76;42.30;98499.34;7000329;28;20312;-81
2023/02/22 09:51:03;;;;;;;11.10;7.47;;;;;;;15.24;42.98;98454.34;6990265;28;20294;-80
2023/02/22 09:54:33;;;;;;;12.70;7.50;;;;;;;16.02;42.21;98504.16;6993623;28;20315;-81
2023/02/22 09:57:56;;;;;;;7.83;6.97;;;;;;;16.57;41.12;98504.22;6992224;28;20582;-80
2023/02/22 10:01:25;;;;;;;7.43;6.70;;;;;;;16.62;40.73;98496.94;7003696;28;20267;-82
2023/02/22 10:04:49;;;;;;;10.10;7.03;;;;;;;17.10;39.98;98510.66;7003507;28;20199;-80
2023/02/22 10:08:13;;;;;;;9.90;7.40;;;;;;;16.76;40.22;98491.97;7007414;28;20234;-80
2023/02/22 10:11:48;;;;;;;13.77;8.17;;;;;;;16.97;40.77;98493.88;7011056;28;20720;-80
2023/02/22 10:15:30;;;;;;;11.93;8.27;;;;;;;17.84;38.66;98481.78;7008815;28;20316;-80
2023/02/22 10:19:15;;;;;;;12.43;8.63;;;;;;;17.34;40.12;98490.25;7002532;28;20310;-81
2023/02/22 10:22:47;;;;;;;8.87;7.73;;;;;;;17.42;39.81;98480.81;7007006;28;20719;-80
2023/02/22 10:26:15;;;;;;;11.80;8.27;;;;;;;17.19;40.11;98481.06;7014341;28;20331;-81
2023/02/22 10:29:40;;;;;;;12.97;8.67;;;;;;;17.34;39.78;98478.53;7014383;28;20233;-81
2023/02/22 10:33:07;;;;;;;13.27;8.40;;;;;;;17.38;39.52;98483.25;6995951;28;20224;-81
2023/02/22 10:36:29;;;;;;;10.33;8.60;;;;;;;17.27;39.74;98480.63;7001259;28;20225;-82
2023/02/22 10:39:52;;;;;;;16.27;10.20;;;;;;;17.60;40.75;98475.00;7003269;28;20230;-83
2023/02/22 10:43:14;;;;;;;13.23;8.93;;;;;;;18.26;39.01;98467.13;6980465;28;21600;-79
2023/02/22 10:46:38;;;;;;;10.23;8.47;;;;;;;18.89;36.90;98469.72;7000566;28;20218;-79
2023/02/22 10:50:00;;;;;;;15.27;8.60;;;;;;;17.89;39.07;98465.47;7008180;28;20230;-80
2023/02/22 10:53:22;;;;;;;14.67;8.87;;;;;;;18.64;37.84;98455.13;7005795;28;20291;-82
2023/02/22 10:56:47;;;;;;;10.63;7.73;;;;;;;17.36;39.08;98466.28;7004672;28;20620;-80
2023/02/22 11:00:25;;;;;;;11.40;8.20;;;;;;;17.91;39.32;98449.66;7003466;28;20229;-81
2023/02/22 11:03:57;;;;;;;14.47;8.80;;;;;;;18.64;37.03;98453.19;6999496;28;20201;-80
2023/02/22 11:07:22;;;;;;;9.13;7.40;;;;;;;19.18;37.04;98437.31;7002567;28;20275;-80
2023/02/22 11:10:43;;;;;;;10.53;7.57;;;;;;;19.44;35.84;98437.13;7001984;28;20235;-80
2023/02/22 11:14:05;;;;;;;12.57;8.40;;;;;;;19.73;34.47;98434.72;6999662;28;20562;-78
2023/02/22 11:17:30;;;;;;;15.77;7.77;;;;;;;19.44;35.25;98419.91;6998617;28;20252;-78
2023/02/22 11:21:01;;;;;;;10.30;7.77;;;;;;;19.29;35.94;98430.81;6999261;28;20206;-80
2023/02/22 11:24:25;;;;;;;9.83;7.47;;;;;;;19.28;35.49;98431.91;6998542;28;20194;-79
2023/02/22 11:27:47;;;;;;;9.33;7.30;;;;;;;19.22;36.11;98424.78;6997818;28;20690;-79
2023/02/22 11:31:15;;;;;;;11.60;7.83;;;;;;;18.54;37.37;98376.72;6998638;28;20300;-79
2023/02/22 11:34:39;;;;;;;11.57;8.33;;;;;;;18.93;37.37;98418.09;6997652;28;20214;-78
2023/02/22 11:38:14;;;;;;;12.77;9.47;;;;;;;18.77;37.64;98422.69;6997779;28;20698;-80
2023/02/22 11:41:36;;;;;;;17.27;11.00;;;;;;;18.84;37.29;98414.22;6998571;28;20194;-79
2023/02/22 11:45:13;;;;;;;10.27;7.20;;;;;;;19.12;37.23;98400.97;6997975;28;20336;-78
2023/02/22 11:48:38;;;;;;;9.60;7.13;;;;;;;19.26;36.00;98407.56;6996333;28;20270;-79
2023/02/22 11:52:08;;;;;;;10.27;7.37;;;;;;;19.12;36.39;98408.31;6998166;28;20190;-79
2023/02/22 11:55:35;;;;;;;11.23;7.33;;;;;;;19.30;36.74;98385.97;6998213;28;20267;-79
2023/02/22 11:59:02;;;;;;;11.70;7.43;;;;;;;19.38;35.86;98394.47;6997607;28;20237;-78
2023/02/22 12:02:32;;;;;;;13.70;7.67;;;;;;;18.92;36.47;98395.41;6997998;28;20571;-79
2023/02/22 12:06:07;;;;;;;10.20;7.80;;;;;;;18.40;37.65;98389.19;6997630;28;20529;-79
2023/02/22 12:09:36;;;;;;;11.60;7.53;;;;;;;18.82;36.56;98387.19;6998308;28;20225;-80
2023/02/22 12:13:09;;;;;;;8.47;7.00;;;;;;;18.77;37.20;98378.16;6997849;28;20827;-79
2023/02/22 12:16:38;;;;;;;8.67;7.47;;;;;;;18.54;37.61;98384.06;6996557;28;20336;-78
2023/02/22 12:20:06;;;;;;;8.80;7.03;;;;;;;18.47;36.97;98375.31;6998707;28;20274;-78
2023/02/22 12:23:32;;;;;;;11.87;7.73;;;;;;;18.60;37.07;98372.91;6998454;28;20208;-78
2023/02/22 12:26:57;;;;;;;9.07;8.13;;;;;;;19.08;37.02;98368.97;6996650;28;20209;-79
2023/02/22 12:30:23;;;;;;;9.30;7.53;;;;;;;18.63;37.13;98360.63;6996615;28;20243;-79
2023/02/22 12:33:50;;;;;;;9.43;7.97;;;;;;;18.45;37.19;98331.88;6997090;28;20222;-79
2023/02/22 12:37:18;;;;;;;11.70;8.03;;;;;;;18.53;37.04;98363.31;6996321;28;20283;-78
2023/02/22 12:40:44;;;;;;;12.97;7.97;;;;;;;18.57;37.16;98346.13;6996679;28;20198;-78
2023/02/22 12:44:09;;;;;;;11.40;9.13;;;;;;;18.94;37.50;98365.09;6996704;28;20190;-79
2023/02/22 12:47:36;;;;;;;13.27;9.67;;;;;;;19.43;36.53;98356.22;6993843;28;20285;-78
2023/02/22 12:51:00;;;;;;;11.07;8.10;;;;;;;19.38;35.83;98349.91;6996232;28;20744;-78
2023/02/22 12:54:40;;;;;;;9.93;6.93;;;;;;;18.81;35.29;98339.09;6996234;28;20230;-79
2023/02/22 12:58:08;;;;;;;11.37;7.67;;;;;;;19.63;35.41;98349.94;6995488;28;20235;-78
2023/02/22 13:01:33;;;;;;;11.10;7.80;;;;;;;19.54;35.52;98327.78;6996367;28;20193;-78
2023/02/22 13:04:57;;;;;;;9.43;7.57;;;;;;;19.55;35.89;98350.47;6996409;28;20235;-79
2023/02/22 13:08:25;;;;;;;11.17;8.47;;;;;;;20.05;34.64;98345.75;6995537;28;20234;-80
2023/02/22 13:11:52;;;;;;;12.37;8.67;;;;;;;19.69;34.47;98333.22;6995978;28;20292;-79
2023/02/22 13:15:19;;;;;;;15.43;10.10;;;;;;;20.32;34.62;98332.59;6996272;28;20214;-80
2023/02/22 13:18:46;;;;;;;14.73;12.70;;;;;;;20.43;33.68;98333.38;6995235;28;20694;-80
2023/02/22 13:22:14;;;;;;;10.30;7.40;;;;;;;19.42;34.80;98331.88;6996018;28;20214;-79
2023/02/22 13:25:40;;;;;;;13.00;8.73;;;;;;;19.69;35.86;98337.91;6995928;28;20248;-78
2023/02/22 13:29:04;;;;;;;11.83;7.67;;;;;;;19.90;35.43;98326.66;6995461;28;20294;-80
2023/02/22 13:32:35;;;;;;;11.97;8.60;;;;;;;20.09;34.45;98310.47;6995954;28;20347;-81
2023/02/22 13:36:31;;;;;;;11.97;8.07;;;;;;;19.39;35.82;98318.75;6995507;28;20634;-82
2023/02/22 13:40:18;;;;;;;12.90;7.90;;;;;;;19.47;36.53;98329.97;6975081;28;20370;-79
2023/02/22 13:44:07;;;;;;;13.53;8.40;;;;;;;19.69;35.67;98327.75;6999996;28;20206;-80
2023/02/22 13:47:56;;;;;;;16.60;13.00;;;;;;;19.70;35.89;98323.13;6992011;28;20751;-80
2023/02/22 13:51:33;;;;;;;9.57;6.93;;;;;;;19.94;34.82;98327.72;7002005;28;20558;-80
2023/02/22 13:54:58;;;;;;;10.53;6.97;;;;;;;20.12;34.83;98316.25;7002275;28;20213;-81
2023/02/22 13:58:19;;;;;;;10.50;7.67;;;;;;;20.27;34.00;98327.13;7002784;28;20634;-80
2023/02/22 14:01:44;;;;;;;10.00;6.43;;;;;;;20.19;33.70;98314.03;7002524;28;20202;-80
2023/02/22 14:05:45;;;;;;;10.70;7.40;;;;;;;19.69;34.97;98316.00;7003625;28;20205;-81
2023/02/22 14:09:08;;;;;;;8.23;7.13;;;;;;;20.12;34.56;98320.88;6985611;28;20631;-82
2023/02/22 14:12:50;;;;;;;10.47;7.90;;;;;;;20.16;34.79;98328.25;7006936;28;20209;-80
2023/02/22 14:16:21;;;;;;;10.80;6.83;;;;;;;19.64;34.52;98316.81;7003957;28;20225;-81
2023/02/22 14:19:42;;;;;;;10.23;7.23;;;;;;;19.59;35.09;98327.78;7005459;28;20864;-80
2023/02/22 14:23:28;;;;;;;15.07;9.10;;;;;;;19.69;36.18;98321.47;7003828;28;20348;-81
2023/02/22 14:26:56;;;;;;;12.80;9.30;;;;;;;20.14;35.86;98315.94;7001017;28;20190;-79
2023/02/22 14:30:25;;;;;;;10.97;8.43;;;;;;;19.84;36.78;98314.06;7005621;28;20300;-79
2023/02/22 14:33:59;;;;;;;11.07;8.43;;;;;;;19.53;37.08;98297.97;7000461;28;20876;-79
2023/02/22 14:37:23;;;;;;;10.73;9.60;;;;;;;19.84;36.76;98300.41;7000164;28;20792;-79
2023/02/22 14:40:48;;;;;;;12.77;10.40;;;;;;;19.89;36.83;98311.34;7000132;28;20202;-79
2023/02/22 14:44:11;;;;;;;11.70;9.00;;;;;;;19.63;36.61;98309.72;6999692;28;20202;-80
2023/02/22 14:47:42;;;;;;;15.10;9.07;;;;;;;19.54;37.41;98303.16;6998647;28;20228;-79
2023/02/22 14:51:06;;;;;;;15.83;9.83;;;;;;;19.85;37.09;98312.13;6999330;28;20189;-78
2023/02/22 14:54:30;;;;;;;13.23;10.20;;;;;;;19.85;37.39;98302.03;6999879;28;20234;-79
2023/02/22 14:58:01;;;;;;;12.07;8.97;;;;;;;19.69;36.84;98321.47;6999745;28;20233;-80
2023/02/22 15:01:25;;;;;;;12.40;9.77;;;;;;;19.56;37.00;98308.34;6990494;28;20186;-78
2023/02/22 15:04:52;;;;;;;12.43;9.30;;;;;;;19.45;37.43;98301.25;6980926;28;20198;-79
2023/02/22 15:08:15;;;;;;;12.47;9.80;;;;;;;19.50;37.43;98304.81;6990605;28;20275;-79
2023/02/22 15:11:37;;;;;;;11.50;9.10;;;;;;;19.51;37.49;98286.50;6974679;28;20618;-78
2023/02/22 15:15:15;;;;;;;14.50;9.67;;;;;;;19.68;37.54;98306.13;6971630;28;20313;-78
2023/02/22 15:18:40;;;;;;;15.07;9.77;;;;;;;19.30;37.24;98293.03;6971185;28;20644;-81
2023/02/22 15:22:08;;;;;;;11.17;7.70;;;;;;;19.53;36.70;98309.75;6981333;28;20198;-81
2023/02/22 15:25:30;;;;;;;11.37;7.87;;;;;;;19.02;37.73;98313.50;7001420;28;20587;-81
2023/02/22 15:28:55;;;;;;;10.40;8.13;;;;;;;19.20;37.76;98312.13;7000502;28;20587;-81
2023/02/22 15:32:30;;;;;;;10.67;8.53;;;;;;;19.07;37.47;98315.41;6999237;28;20263;-80
2023/02/22 15:35:55;;;;;;;13.70;9.53;;;;;;;19.01;37.74;98313.75;6997847;28;20263;-82
2023/02/22 15:39:24;;;;;;;14.97;8.90;;;;;;;18.97;38.14;98323.56;6998709;28;20222;-80
2023/02/22 15:42:47;;;;;;;10.37;8.13;;;;;;;18.78;38.45;98316.97;6994572;28;20209;-80
2023/02/22 15:46:10;;;;;;;13.73;9.80;;;;;;;18.83;38.97;98317.00;6984967;28;20206;-79
2023/02/22 15:49:36;;;;;;;14.07;9.93;;;;;;;18.86;39.33;98322.72;6970813;28;20774;-81
2023/02/22 15:53:00;;;;;;;13.57;10.43;;;;;;;18.72;39.78;98302.50;6976283;28;20655;-80
2023/02/22 15:56:28;;;;;;;15.83;10.80;;;;;;;18.87;39.58;98310.72;6996226;28;20248;-81
2023/02/22 15:59:52;;;;;;;15.47;10.03;;;;;;;18.76;39.95;98317.22;6997183;28;20237;-80
2023/02/22 16:03:16;;;;;;;14.83;10.27;;;;;;;18.85;39.56;98326.56;6995904;28;20263;-79